Metar Cercanos

 

LEPA - Palma De Mallorc, Spain
Distance from station: ONO 38km
Actualización: Sat, 27-Nov-2021 1:00am CET
Muy nuboso
Muy nuboso
 Viento del varies
Viento: varies 2 km/h
Temperatura: 8°C
Rocío: 6°C
Humedad: 87%
Barómetro: 1004 hPa
Clouds: Muy nuboso
Visibility: 10 km
Cloud details: Few Clouds 1219 m
Muy nuboso 1829 m
2021/11/27 00:00 LEPA 270000Z VRB01KT 9999 FEW040 BKN060 08/06 Q1004 NOSIG
LEMH - Mahon/Menorca Is, Spain
Distance from station: ENE 105km
Actualización: Sat, 27-Nov-2021 1:00am CET
Parcialmente nuboso
Parcialmente nuboso
 Viento del E
Viento: E 17 km/h
Temperatura: 9°C
Sensación frio: 7°C
Rocío: 8°C
Humedad: 94%
Barómetro: 1003 hPa
Clouds: Parcialmente nuboso
Visibility: 10 km
Cloud details: Parcialmente nuboso 975 m
2021/11/27 00:00 LEMH 270000Z AUTO 08009KT 9999 SCT032/// 09/08 Q1003
 
LEIB - Ibiza/Es Codola, Spain
Distance from station: OSO 165km
Actualización: Sat, 27-Nov-2021 1:00am CET
Few Clouds
Few Clouds
 Viento del NO
Viento: NO 13 km/h
Temperatura: 12°C
Rocío: 5°C
Humedad: 63%
Barómetro: 1005 hPa
Clouds: Few Clouds
Visibility: 10 km
Cloud details: Few Clouds 1433 m
2021/11/27 00:00 LEIB 270000Z AUTO 32007KT 290V350 9999 FEW047/// 12/05 Q1005
LEBL - Barcelona Airpor, Spain
Distance from station: NNO 225km
Actualización: Sat, 27-Nov-2021 1:00am CET
Few Clouds
Few Clouds
 Viento del NNO
Viento: NNO 15 km/h
Temperatura: 6°C
Sensación frio: 3°C
Rocío: 3°C
Humedad: 81%
Barómetro: 1003 hPa
Clouds: Few Clouds
Visibility: 10 km
Cloud details: Few Clouds 610 m
2021/11/27 00:00 LEBL 270000Z 33008KT 9999 FEW020 06/03 Q1003 NOSIG
 
LEVC - Valencia (civ/Mi, Spain
Distance from station: NO 188km
Actualización: Sat, 27-Nov-2021 1:00am CET
Despejado
Despejado
 Viento del OSO
Viento: OSO 11 km/h
Temperatura: 7°C
Sensación frio: 5°C
Rocío: 1°C
Humedad: 66%
Barómetro: 1007 hPa
Resumen: Despejado
Visibility: greater than 10 km
2021/11/27 00:00 LEVC 270000Z 25006KT 230V290 CAVOK 07/01 Q1007 NOSIG
LEGE - Gerona/Costa Bra, Spain
Distance from station: N 276km
Actualización: Sat, 27-Nov-2021 1:00am CET
Few Clouds
Few Clouds
 Viento del OSO
Viento: OSO 9 km/h
Temperatura: 4°C
Sensación frio: 2°C
Rocío: 4°C
Humedad: 100%
Barómetro: 1002 hPa
Clouds: Few Clouds
Visibility: 10 km
Cloud details: Few Clouds 914 m
2021/11/27 00:00 LEGE 270000Z 25005KT 9999 FEW030 04/04 Q1002
 
LEAL - Alicante/El Alte, Spain
Distance from station: OSO 344km
Actualización: Sat, 27-Nov-2021 1:00am CET
Despejado
Despejado
 Viento del O
Viento: O 31 km/h
Temperatura: 10°C
Sensación frio: 7°C
Rocío: 1°C
Humedad: 54%
Barómetro: 1008 hPa
Resumen: Despejado
Visibility: greater than 10 km
2021/11/27 00:00 LEAL 270000Z 28017KT CAVOK 10/01 Q1008 NOSIG
LEAM - Almeria Airport, Spain
Distance from station: SSO 56km
Actualización: Sat, 27-Nov-2021 1:00am CET
Parcialmente nuboso
Parcialmente nuboso
 Viento del NNO
Viento: NNO 17 km/h
Temperatura: 13°C
Rocío: 0°C
Humedad: 41%
Barómetro: 1010 hPa
Clouds: Parcialmente nuboso
Visibility: 10 km
Cloud details: Few Clouds 1524 m
Parcialmente nuboso 1981 m
2021/11/27 00:00 LEAM 270000Z AUTO 33009KT 9999 FEW050 SCT065 13/00 Q1010
 
LEZG - Zaragoza (mil/Ci, Spain
Distance from station: NO 431km
Actualización: Sat, 27-Nov-2021 1:00am CET
Muy nuboso
Muy nuboso
 Viento del SO
Viento: SO 19 km/h
Temperatura: 8°C
Sensación frio: 4°C
Rocío: 2°C
Humedad: 66%
Barómetro: 1005 hPa
Clouds: Muy nuboso
Visibility: 10 km
Cloud details: Muy nuboso 1524 m
Muy nuboso 1829 m
2021/11/27 00:00 LEZG 270000Z 23010KT 9999 BKN050 BKN060 08/02 Q1005
LEMD - Madrid/Barajas, Spain
Distance from station: ONO 234km
Actualización: Sat, 27-Nov-2021 1:00am CET
Parcialmente nuboso
Parcialmente nuboso
 Viento del NNE
Viento: NNE 4 km/h
Temperatura: 3°C
Rocío: 0°C
Humedad: 81%
Barómetro: 1009 hPa
Clouds: Parcialmente nuboso
Visibility: 10 km
Cloud details: Parcialmente nuboso 2286 m
2021/11/27 00:00 LEMD 270000Z 02002KT 9999 SCT075 03/00 Q1009 NOSIG
 
LEGR - Granada Airport, Spain
Distance from station: OSO 62km
Actualización: Sat, 27-Nov-2021 1:00am CET
Parcialmente nuboso
Parcialmente nuboso
 Viento del varies
Viento: varies 2 km/h
Temperatura: 4°C
Rocío: 3°C
Humedad: 93%
Barómetro: 1012 hPa
Clouds: Parcialmente nuboso
Visibility: 10 km
Cloud details: Parcialmente nuboso 1585 m
2021/11/27 00:00 LEGR 270000Z VRB01KT 9999 SCT052 04/03 Q1012
LEMG - Malaga (civ/Mil), Spain
Distance from station: OSO 227km
Actualización: Sat, 27-Nov-2021 1:00am CET
Despejado
Despejado
 Viento del ONO
Viento: ONO 24 km/h
Temperatura: 10°C
Sensación frio: 7°C
Rocío: 5°C
Humedad: 71%
Barómetro: 1012 hPa
Resumen: Despejado
Visibility: greater than 10 km
2021/11/27 00:00 LEMG 270000Z 29013KT CAVOK 10/05 Q1012 NOSIG
 
LEZL - Sevilla (civ/Mil, Spain
Distance from station: S 318km
Actualización: Sat, 27-Nov-2021 1:00am CET
Despejado
Despejado
 Viento del calm
Viento: Calma
Temperatura: 6°C
Rocío: 4°C
Humedad: 87%
Barómetro: 1014 hPa
Resumen: Despejado
Visibility: greater than 10 km
2021/11/27 00:00 LEZL 270000Z 00000KT CAVOK 06/04 Q1014 NOSIG
LEVT - Vitoria, Spain
Distance from station: NO 226km
Actualización: Sat, 27-Nov-2021 1:00am CET
Muy nuboso
Muy nuboso
 Viento del SO
Viento: SO 19 km/h
Temperatura: 5°C
Sensación frio: 1°C
Rocío: 3°C
Humedad: 87%
Barómetro: 1005 hPa
Clouds: Muy nuboso
Visibility: 10 km
Cloud details: Muy nuboso 792 m
Muy nuboso 1006 m
2021/11/27 00:00 LEVT 270000Z 22010KT 9999 BKN026 BKN033 05/03 Q1005
 
LEBB - Bilbao/Sondica, Spain
Distance from station: NNO 235km
Actualización: Sat, 27-Nov-2021 1:00am CET
Muy nuboso
Muy nuboso
 Viento del SO
Viento: SO 9 km/h
Temperatura: 10°C
Sensación frio: 9°C
Rocío: 9°C
Humedad: 94%
Barómetro: 1005 hPa
Clouds: Muy nuboso
Visibility: 8 km
Cloud details: Parcialmente nuboso 914 m
Muy nuboso 1097 m
Muy nuboso 1341 m
2021/11/27 00:00 LEBB 270000Z AUTO 23005KT 200V260 8000 SCT030 BKN036 BKN044 10/09 Q1005
LESO - San Sebastian/Fu, Spain
Distance from station: N 231km
Actualización: Sat, 27-Nov-2021 1:00am CET
Lluvia débil, Muy nuboso
Lluvia débil, Muy nuboso
 Viento del SO
Viento: SO 20 km/h
Temperatura: 10°C
Sensación frio: 7°C
Rocío: 8°C
Humedad: 88%
Barómetro: 1003 hPa
Resumen: Lluvia débil
Clouds: Muy nuboso
Visibility: 10 km
Cloud details: Parcialmente nuboso 853 m
Muy nuboso 1189 m
Muy nuboso 1524 m
2021/11/27 00:00 LESO 270000Z AUTO 23011KT 200V260 9999 -RA SCT028 BKN039 BKN050 10/08 Q1003
 
LEVD - Valladolid(Mil/C, Spain
Distance from station: ONO 239km
Actualización: Sat, 27-Nov-2021 1:00am CET
Despejado
Despejado
 Viento del O
Viento: O 20 km/h
Temperatura: 1°C
Sensación frio: -4°C
Rocío: 0°C
Humedad: 93%
Barómetro: 1009 hPa
Resumen: Despejado
Visibility: greater than 10 km
2021/11/27 00:00 LEVD 270000Z AUTO 26011KT CAVOK 01/00 Q1009
LESA - Salamanca (civ/M, Spain
Distance from station: ONO 349km
Actualización: Sat, 27-Nov-2021 1:00am CET
Despejado
Despejado
 Viento del O
Viento: O 19 km/h
Temperatura: 1°C
Sensación frio: -4°C
Rocío: 0°C
Humedad: 93%
Barómetro: 1011 hPa
Resumen: Despejado
Visibility: greater than 10 km
2021/11/27 00:00 LESA 270000Z AUTO 26010KT CAVOK 01/00 Q1011
 
LEXJ - Santander/Paraya, Spain
Distance from station: NNO 247km
Actualización: Sat, 27-Nov-2021 1:00am CET
Lluvia débil, Muy nuboso
Lluvia débil, Muy nuboso
 Viento del O
Viento: O 35 km/h, Racha: 65 km/h
Temperatura: 11°C
Rocío: 9°C
Humedad: 88%
Barómetro: 1005 hPa
Resumen: Lluvia débil
Clouds: Muy nuboso
Visibility: 10 km
Cloud details: Parcialmente nuboso 671 m
Parcialmente nuboso 914 m
Muy nuboso 1341 m
2021/11/27 00:00 LEXJ 270000Z AUTO 27019G35KT 9999 -RA SCT022 SCT030 BKN044 11/09 Q1005 RERA
LEAS - Asturias/Aviles, Spain
Distance from station: NO 214km
Actualización: Sat, 27-Nov-2021 1:00am CET
Lluvia, Mist, Muy nuboso
Lluvia, Mist, Muy nuboso
 Viento del O
Viento: O 35 km/h
Temperatura: 10°C
Sensación frio: 6°C
Rocío: 9°C
Humedad: 94%
Barómetro: 1009 hPa
Resumen: Lluvia, Mist
Clouds: Muy nuboso
Visibility: 1 km
Cloud details: Parcialmente nuboso 823 m
Parcialmente nuboso 1524 m
Muy nuboso 2347 m
2021/11/27 00:00 LEAS 270000Z AUTO 28019KT 240V320 1300 1100W R29/P2000 R11/1900N RA BR SCT027 SCT050 BKN077 10/09 Q1009
 
LECO - La Coruna/Alvedr, Spain
Distance from station: ONO 222km
Actualización: Sat, 27-Nov-2021 1:00am CET
Parcialmente nuboso
Parcialmente nuboso
 Viento del NO
Viento: NO 17 km/h
Temperatura: 12°C
Rocío: 10°C
Humedad: 88%
Barómetro: 1012 hPa
Clouds: Parcialmente nuboso
Visibility: 10 km
Cloud details: Few Clouds 488 m
Parcialmente nuboso 610 m
2021/11/27 00:00 LECO 270000Z 32009KT 260V010 9999 FEW016 SCT020 12/10 Q1012 TEMPO 3000 RA
LEVX - Vigo/Peinador, Spain
Distance from station: O 214km
Actualización: Sat, 27-Nov-2021 1:00am CET
Patches of fog, Light drizzle, Muy nuboso
Patches of fog, Light drizzle, Muy nuboso
 Viento del O
Viento: O 7 km/h
Temperatura: 9°C
Sensación frio: 8°C
Rocío: 9°C
Humedad: 100%
Barómetro: 1014 hPa
Resumen: Patches of fog, Light drizzle
Clouds: Muy nuboso
Visibility: 1 km
Cloud details: Muy nuboso 30 m
Muy nuboso 457 m
2021/11/27 00:00 LEVX 270000Z 27004KT 0700 R19/P2000 R01/0750N BCFG -DZ BKN001 BKN015 09/09 Q1014 NOSIG